Time,TemperatureF,DewpointF,PressureIn,WindDirection,WindDirectionDegrees,WindSpeedMPH,WindSpeedGustMPH,Humidity,HourlyPrecipIn,Conditions,Clouds,dailyrainin,SoftwareType,DateUTC
2013-02-06 00:00:00,30.6,29.9,29.86,WNW,294,0.0,0.0,97,0.00,,,0.00,LWC V2.00 B2112,2013-02-06 08:00:00,
2013-02-06 00:05:00,30.6,29.9,29.86,WNW,295,0.0,0.0,97,0.00,,,0.00,LWC V2.00 B2112,2013-02-06 08:05:00,
2013-02-06 00:10:00,30.6,29.9,29.86,WNW,295,0.0,0.0,97,0.00,,,0.00,LWC V2.00 B2112,2013-02-06 08:10:00,
2013-02-06 00:15:00,30.6,29.9,29.86,WNW,295,0.0,0.0,97,0.00,,,0.00,LWC V2.00 B2112,2013-02-06 08:15:00,
2013-02-06 00:20:00,30.4,29.7,29.86,WNW,295,0.0,0.0,97,0.00,,,0.00,LWC V2.00 B2112,2013-02-06 08:20:00,
2013-02-06 00:25:00,30.4,29.7,29.86,WNW,295,0.0,0.0,97,0.00,,,0.00,LWC V2.00 B2112,2013-02-06 08:25:00,
2013-02-06 00:30:00,30.3,29.6,29.87,WNW,295,0.0,0.0,97,0.00,,,0.00,LWC V2.00 B2112,2013-02-06 08:30:00,
2013-02-06 00:35:00,30.3,29.6,29.87,WNW,295,0.0,0.0,97,0.00,,,0.00,LWC V2.00 B2112,2013-02-06 08:35:00,
2013-02-06 00:40:00,30.1,29.4,29.87,WNW,295,0.0,0.0,97,0.00,,,0.00,LWC V2.00 B2112,2013-02-06 08:40:00,
2013-02-06 00:45:00,30.0,29.3,29.87,WNW,295,0.0,0.0,97,0.00,,,0.00,LWC V2.00 B2112,2013-02-06 08:45:00,
2013-02-06 00:50:00,29.8,29.1,29.87,WNW,295,0.0,0.0,97,0.00,,,0.00,LWC V2.00 B2112,2013-02-06 08:50:00,
2013-02-06 00:55:00,29.7,29.0,29.87,WNW,295,0.0,0.0,97,0.00,,,0.00,LWC V2.00 B2112,2013-02-06 08:55:00,
2013-02-06 01:00:00,29.5,28.8,29.88,NNE,30,2.0,2.0,97,0.00,,,0.00,LWC V2.00 B2112,2013-02-06 09:00:00,
2013-02-06 01:03:00,29.5,28.8,29.88,NNE,30,0.0,2.0,97,0.00,,,0.00,LWC V2.00 B2112,2013-02-06 09:03:00,
2013-02-06 01:08:00,29.5,28.8,29.88,NNE,30,0.0,0.0,97,0.00,,,0.00,LWC V2.00 B2112,2013-02-06 09:08:00,
2013-02-06 01:13:00,29.5,28.8,29.88,NNE,30,0.0,0.0,97,0.00,,,0.00,LWC V2.00 B2112,2013-02-06 09:13:00,
2013-02-06 01:18:00,29.4,28.7,29.88,NNE,30,0.0,0.0,97,0.00,,,0.00,LWC V2.00 B2112,2013-02-06 09:18:00,
2013-02-06 01:23:00,29.4,28.7,29.88,NNE,30,0.0,0.0,97,0.00,,,0.00,LWC V2.00 B2112,2013-02-06 09:23:00,
2013-02-06 01:28:00,29.4,28.7,29.88,NNE,30,0.0,0.0,97,0.00,,,0.00,LWC V2.00 B2112,2013-02-06 09:28:00,
2013-02-06 01:33:00,29.3,28.6,29.88,NNE,30,0.0,0.0,97,0.00,,,0.00,LWC V2.00 B2112,2013-02-06 09:33:00,
2013-02-06 01:38:00,29.1,28.4,29.88,NNE,30,0.0,0.0,97,0.00,,,0.00,LWC V2.00 B2112,2013-02-06 09:38:00,
2013-02-06 01:43:00,29.0,28.3,29.88,NNE,30,0.0,0.0,97,0.00,,,0.00,LWC V2.00 B2112,2013-02-06 09:43:00,
2013-02-06 01:48:00,28.8,28.1,29.88,NNE,30,0.0,0.0,97,0.00,,,0.00,LWC V2.00 B2112,2013-02-06 09:48:00,
2013-02-06 01:53:00,28.7,28.0,29.88,NNE,30,0.0,0.0,97,0.00,,,0.00,LWC V2.00 B2112,2013-02-06 09:53:00,
2013-02-06 01:58:00,28.4,27.7,29.89,NNE,23,0.0,2.0,97,0.00,,,0.00,LWC V2.00 B2112,2013-02-06 09:58:00,
2013-02-06 02:03:00,28.2,27.5,29.89,WNW,294,0.0,4.0,97,0.00,,,0.00,LWC V2.00 B2112,2013-02-06 10:03:00,
2013-02-06 02:08:00,28.1,27.4,29.89,West,278,2.0,4.0,97,0.00,,,0.00,LWC V2.00 B2112,2013-02-06 10:08:00,
2013-02-06 02:13:00,27.9,27.2,29.90,West,278,0.0,1.0,97,0.00,,,0.00,LWC V2.00 B2112,2013-02-06 10:13:00,
2013-02-06 02:18:00,27.9,27.2,29.90,West,278,0.0,0.0,97,0.00,,,0.00,LWC V2.00 B2112,2013-02-06 10:18:00,
2013-02-06 02:23:00,27.8,27.1,29.90,West,278,0.0,0.0,97,0.00,,,0.00,LWC V2.00 B2112,2013-02-06 10:23:00,
2013-02-06 02:28:00,27.8,27.1,29.90,West,278,0.0,0.0,97,0.00,,,0.00,LWC V2.00 B2112,2013-02-06 10:28:00,
2013-02-06 02:33:00,27.8,27.1,29.90,West,272,4.0,7.0,97,0.00,,,0.00,LWC V2.00 B2112,2013-02-06 10:33:00,
2013-02-06 02:38:00,27.8,27.1,29.90,SW,216,0.0,0.0,97,0.00,,,0.00,LWC V2.00 B2112,2013-02-06 10:38:00,
2013-02-06 02:43:00,27.8,27.1,29.90,SW,217,0.0,0.0,97,0.00,,,0.00,LWC V2.00 B2112,2013-02-06 10:43:00,
2013-02-06 02:48:00,27.6,26.9,29.90,SW,217,0.0,0.0,97,0.00,,,0.00,LWC V2.00 B2112,2013-02-06 10:48:00,
2013-02-06 02:53:00,27.8,27.1,29.90,ESE,106,0.0,2.0,97,0.00,,,0.00,LWC V2.00 B2112,2013-02-06 10:53:00,
2013-02-06 02:58:00,28.1,27.4,29.90,North,11,0.0,1.0,97,0.00,,,0.00,LWC V2.00 B2112,2013-02-06 10:58:00,
2013-02-06 03:03:00,28.1,27.4,29.90,North,11,0.0,0.0,97,0.00,,,0.00,LWC V2.00 B2112,2013-02-06 11:03:00,
2013-02-06 03:08:00,27.9,27.2,29.90,North,11,0.0,0.0,97,0.00,,,0.00,LWC V2.00 B2112,2013-02-06 11:08:00,
2013-02-06 03:13:00,27.8,27.1,29.91,North,11,0.0,0.0,97,0.00,,,0.00,LWC V2.00 B2112,2013-02-06 11:13:00,
2013-02-06 03:18:00,27.6,26.9,29.91,North,11,0.0,0.0,97,0.00,,,0.00,LWC V2.00 B2112,2013-02-06 11:18:00,
2013-02-06 03:23:00,27.5,26.8,29.91,North,11,0.0,0.0,97,0.00,,,0.00,LWC V2.00 B2112,2013-02-06 11:23:00,
2013-02-06 03:28:00,27.5,26.8,29.91,North,11,0.0,0.0,97,0.00,,,0.00,LWC V2.00 B2112,2013-02-06 11:28:00,
2013-02-06 03:33:00,27.3,26.3,29.91,North,11,0.0,0.0,96,0.00,,,0.00,LWC V2.00 B2112,2013-02-06 11:33:00,
2013-02-06 03:38:00,27.2,26.2,29.91,North,11,0.0,0.0,96,0.00,,,0.00,LWC V2.00 B2112,2013-02-06 11:38:00,
2013-02-06 03:43:00,27.5,26.5,29.91,NW,309,1.0,2.0,96,0.00,,,0.00,LWC V2.00 B2112,2013-02-06 11:43:00,
2013-02-06 03:48:00,27.6,26.6,29.91,NW,305,0.0,2.0,96,0.00,,,0.00,LWC V2.00 B2112,2013-02-06 11:48:00,
2013-02-06 03:53:00,27.6,26.6,29.91,NW,308,0.0,1.0,96,0.00,,,0.00,LWC V2.00 B2112,2013-02-06 11:53:00,
2013-02-06 03:58:00,27.6,26.6,29.91,NW,308,0.0,0.0,96,0.00,,,0.00,LWC V2.00 B2112,2013-02-06 11:58:00,
2013-02-06 04:03:00,27.6,26.9,29.91,NW,308,0.0,0.0,97,0.00,,,0.00,LWC V2.00 B2112,2013-02-06 12:03:00,
2013-02-06 04:08:00,27.8,27.1,29.91,NW,308,0.0,2.0,97,0.00,,,0.00,LWC V2.00 B2112,2013-02-06 12:08:00,
2013-02-06 04:13:00,28.1,27.4,29.91,WNW,302,0.0,0.0,97,0.00,,,0.00,LWC V2.00 B2112,2013-02-06 12:13:00,
2013-02-06 04:18:00,27.9,27.2,29.91,NW,304,0.0,2.0,97,0.00,,,0.00,LWC V2.00 B2112,2013-02-06 12:18:00,
2013-02-06 04:23:00,27.9,26.7,29.91,NW,304,1.0,4.0,95,0.00,,,0.00,LWC V2.00 B2112,2013-02-06 12:23:00,
2013-02-06 04:28:00,27.9,27.2,29.91,NW,304,0.0,0.0,97,0.00,,,0.00,LWC V2.00 B2112,2013-02-06 12:28:00,
2013-02-06 04:33:00,27.8,27.1,29.91,NW,304,0.0,2.0,97,0.00,,,0.00,LWC V2.00 B2112,2013-02-06 12:33:00,
2013-02-06 04:38:00,27.5,26.5,29.91,NW,304,0.0,0.0,96,0.00,,,0.00,LWC V2.00 B2112,2013-02-06 12:38:00,
2013-02-06 04:43:00,27.5,26.5,29.92,NW,304,0.0,2.0,96,0.00,,,0.00,LWC V2.00 B2112,2013-02-06 12:43:00,
2013-02-06 04:48:00,27.3,26.3,29.92,NW,304,0.0,0.0,96,0.00,,,0.00,LWC V2.00 B2112,2013-02-06 12:48:00,
2013-02-06 04:53:00,27.0,26.0,29.92,NW,304,0.0,0.0,96,0.00,,,0.00,LWC V2.00 B2112,2013-02-06 12:53:00,
2013-02-06 04:58:00,27.0,26.0,29.93,NW,304,0.0,0.0,96,0.00,,,0.00,LWC V2.00 B2112,2013-02-06 12:58:00,
2013-02-06 05:03:00,26.7,25.5,29.93,NW,304,0.0,0.0,95,0.00,,,0.00,LWC V2.00 B2112,2013-02-06 13:03:00,
2013-02-06 05:08:00,26.7,25.7,29.93,NW,304,0.0,0.0,96,0.00,,,0.00,LWC V2.00 B2112,2013-02-06 13:08:00,
2013-02-06 05:13:00,26.7,25.7,29.93,NW,304,0.0,0.0,96,0.00,,,0.00,LWC V2.00 B2112,2013-02-06 13:13:00,
2013-02-06 05:18:00,26.3,25.1,29.93,NW,304,0.0,0.0,95,0.00,,,0.00,LWC V2.00 B2112,2013-02-06 13:18:00,
2013-02-06 05:23:00,26.1,24.9,29.93,NW,304,0.0,0.0,95,0.00,,,0.00,LWC V2.00 B2112,2013-02-06 13:23:00,
2013-02-06 05:28:00,25.8,24.6,29.93,West,275,0.0,0.0,95,0.00,,,0.00,LWC V2.00 B2112,2013-02-06 13:28:00,
2013-02-06 05:33:00,25.7,24.5,29.93,West,275,0.0,0.0,95,0.00,,,0.00,LWC V2.00 B2112,2013-02-06 13:33:00,
2013-02-06 05:38:00,25.7,24.5,29.93,West,275,0.0,0.0,95,0.00,,,0.00,LWC V2.00 B2112,2013-02-06 13:38:00,
2013-02-06 05:43:00,25.8,24.6,29.93,West,275,0.0,0.0,95,0.00,,,0.00,LWC V2.00 B2112,2013-02-06 13:43:00,
2013-02-06 05:48:00,26.0,24.8,29.93,West,275,0.0,0.0,95,0.00,,,0.00,LWC V2.00 B2112,2013-02-06 13:48:00,
2013-02-06 05:53:00,26.0,24.8,29.93,West,275,0.0,0.0,95,0.00,,,0.00,LWC V2.00 B2112,2013-02-06 13:53:00,
2013-02-06 05:58:00,26.0,24.8,29.94,West,275,0.0,0.0,95,0.00,,,0.00,LWC V2.00 B2112,2013-02-06 13:58:00,
2013-02-06 06:03:00,25.7,24.5,29.94,West,275,0.0,0.0,95,0.00,,,0.00,LWC V2.00 B2112,2013-02-06 14:03:00,
2013-02-06 06:08:00,25.6,24.4,29.94,West,275,0.0,0.0,95,0.00,,,0.00,LWC V2.00 B2112,2013-02-06 14:08:00,
2013-02-06 06:13:00,25.4,24.2,29.94,West,275,0.0,0.0,95,0.00,,,0.00,LWC V2.00 B2112,2013-02-06 14:13:00,
2013-02-06 06:18:00,25.4,24.2,29.94,West,275,0.0,0.0,95,0.00,,,0.00,LWC V2.00 B2112,2013-02-06 14:18:00,
2013-02-06 06:23:00,25.4,24.2,29.94,West,275,0.0,0.0,95,0.00,,,0.00,LWC V2.00 B2112,2013-02-06 14:23:00,
2013-02-06 06:28:00,25.1,23.9,29.94,West,275,0.0,0.0,95,0.00,,,0.00,LWC V2.00 B2112,2013-02-06 14:28:00,
2013-02-06 06:33:00,25.1,23.6,29.94,West,275,0.0,0.0,94,0.00,,,0.00,LWC V2.00 B2112,2013-02-06 14:33:00,
2013-02-06 06:38:00,25.0,23.5,29.94,West,275,0.0,0.0,94,0.00,,,0.00,LWC V2.00 B2112,2013-02-06 14:38:00,
2013-02-06 06:43:00,25.3,24.1,29.94,West,275,0.0,0.0,95,0.00,,,0.00,LWC V2.00 B2112,2013-02-06 14:43:00,
2013-02-06 06:48:00,25.6,24.4,29.94,West,275,0.0,2.0,95,0.00,,,0.00,LWC V2.00 B2112,2013-02-06 14:48:00,
2013-02-06 06:53:00,25.3,24.1,29.94,West,275,0.0,0.0,95,0.00,,,0.00,LWC V2.00 B2112,2013-02-06 14:53:00,
2013-02-06 06:58:00,25.1,23.9,29.95,West,275,0.0,0.0,95,0.00,,,0.00,LWC V2.00 B2112,2013-02-06 14:58:00,
2013-02-06 07:03:00,25.3,24.1,29.95,West,275,0.0,0.0,95,0.00,,,0.00,LWC V2.00 B2112,2013-02-06 15:03:00,
2013-02-06 07:08:00,25.1,23.9,29.95,West,275,0.0,0.0,95,0.00,,,0.00,LWC V2.00 B2112,2013-02-06 15:08:00,
2013-02-06 07:13:00,25.0,23.5,29.95,West,275,0.0,0.0,94,0.00,,,0.00,LWC V2.00 B2112,2013-02-06 15:13:00,
2013-02-06 07:18:00,25.6,24.4,29.95,West,275,0.0,0.0,95,0.00,,,0.00,LWC V2.00 B2112,2013-02-06 15:18:00,
2013-02-06 07:23:00,26.1,24.9,29.95,West,275,0.0,0.0,95,0.00,,,0.00,LWC V2.00 B2112,2013-02-06 15:23:00,
2013-02-06 07:28:00,26.3,25.3,29.95,West,275,0.0,0.0,96,0.00,,,0.00,LWC V2.00 B2112,2013-02-06 15:28:00,
2013-02-06 07:33:00,26.1,24.9,29.95,West,275,0.0,0.0,95,0.00,,,0.00,LWC V2.00 B2112,2013-02-06 15:33:00,
2013-02-06 07:38:00,25.8,24.6,29.95,West,275,0.0,1.0,95,0.00,,,0.00,LWC V2.00 B2112,2013-02-06 15:38:00,
2013-02-06 07:43:00,25.7,24.5,29.96,West,275,0.0,0.0,95,0.00,,,0.00,LWC V2.00 B2112,2013-02-06 15:43:00,
2013-02-06 07:48:00,25.6,24.4,29.96,West,275,0.0,0.0,95,0.00,,,0.00,LWC V2.00 B2112,2013-02-06 15:48:00,
2013-02-06 07:53:00,26.3,25.3,29.96,West,275,0.0,0.0,96,0.00,,,0.00,LWC V2.00 B2112,2013-02-06 15:53:00,
2013-02-06 07:58:00,26.7,25.7,29.96,West,277,0.0,2.0,96,0.00,,,0.00,LWC V2.00 B2112,2013-02-06 15:58:00,
2013-02-06 08:03:00,26.6,25.6,29.96,West,275,0.0,0.0,96,0.00,,,0.00,LWC V2.00 B2112,2013-02-06 16:03:00,
2013-02-06 08:08:00,26.9,25.9,29.96,NNW,336,0.0,0.0,96,0.00,,,0.00,LWC V2.00 B2112,2013-02-06 16:08:00,
2013-02-06 08:13:00,26.9,25.9,29.97,NNW,336,0.0,0.0,96,0.00,,,0.00,LWC V2.00 B2112,2013-02-06 16:13:00,
2013-02-06 08:18:00,27.2,26.2,29.97,NNW,336,0.0,0.0,96,0.00,,,0.00,LWC V2.00 B2112,2013-02-06 16:18:00,
2013-02-06 08:23:00,27.2,26.2,29.97,SE,131,0.0,2.0,96,0.00,,,0.00,LWC V2.00 B2112,2013-02-06 16:23:00,
2013-02-06 08:28:00,28.2,27.2,29.97,SE,126,0.0,1.0,96,0.00,,,0.00,LWC V2.00 B2112,2013-02-06 16:28:00,
2013-02-06 08:33:00,27.9,26.9,29.97,SW,220,0.0,0.0,96,0.00,,,0.00,LWC V2.00 B2112,2013-02-06 16:33:00,
2013-02-06 08:38:00,27.8,26.8,29.97,SW,220,0.0,0.0,96,0.00,,,0.00,LWC V2.00 B2112,2013-02-06 16:38:00,
2013-02-06 08:43:00,27.9,26.9,29.97,SW,220,0.0,0.0,96,0.00,,,0.00,LWC V2.00 B2112,2013-02-06 16:43:00,
2013-02-06 08:48:00,27.9,26.7,29.97,SW,220,0.0,0.0,95,0.00,,,0.00,LWC V2.00 B2112,2013-02-06 16:48:00,
2013-02-06 08:53:00,28.2,27.0,29.97,SW,220,0.0,0.0,95,0.00,,,0.00,LWC V2.00 B2112,2013-02-06 16:53:00,
2013-02-06 08:58:00,29.0,28.0,29.98,SW,220,0.0,0.0,96,0.00,,,0.00,LWC V2.00 B2112,2013-02-06 16:58:00,
2013-02-06 09:03:00,29.5,28.5,29.98,WSW,239,1.0,2.0,96,0.00,,,0.00,LWC V2.00 B2112,2013-02-06 17:03:00,
2013-02-06 09:08:00,30.1,29.1,29.98,WSW,244,0.0,0.0,96,0.00,,,0.00,LWC V2.00 B2112,2013-02-06 17:08:00,
2013-02-06 09:13:00,31.0,30.0,29.98,WSW,244,0.0,0.0,96,0.00,,,0.00,LWC V2.00 B2112,2013-02-06 17:13:00,
2013-02-06 09:18:00,31.2,30.2,29.98,SE,145,2.0,2.0,96,0.00,,,0.00,LWC V2.00 B2112,2013-02-06 17:18:00,
2013-02-06 09:23:00,31.6,30.6,29.98,SE,145,0.0,0.0,96,0.00,,,0.00,LWC V2.00 B2112,2013-02-06 17:23:00,
2013-02-06 09:28:00,31.8,30.8,29.98,South,182,0.0,0.0,96,0.00,,,0.00,LWC V2.00 B2112,2013-02-06 17:28:00,
2013-02-06 09:33:00,32.2,31.2,29.98,South,182,0.0,0.0,96,0.00,,,0.00,LWC V2.00 B2112,2013-02-06 17:33:00,
2013-02-06 09:38:00,32.5,31.5,29.98,South,182,0.0,0.0,96,0.00,,,0.00,LWC V2.00 B2112,2013-02-06 17:38:00,
2013-02-06 09:43:00,32.5,31.5,29.98,South,181,0.0,0.0,96,0.00,,,0.00,LWC V2.00 B2112,2013-02-06 17:43:00,
2013-02-06 09:48:00,32.5,31.2,29.98,South,178,0.0,0.0,95,0.00,,,0.00,LWC V2.00 B2112,2013-02-06 17:48:00,
2013-02-06 09:53:00,32.7,31.2,29.98,South,178,0.0,0.0,94,0.00,,,0.00,LWC V2.00 B2112,2013-02-06 17:53:00,
2013-02-06 09:58:00,32.8,31.3,29.99,SSW,206,1.0,4.0,94,0.00,,,0.00,LWC V2.00 B2112,2013-02-06 17:58:00,
2013-02-06 10:03:00,33.1,31.6,29.99,SSW,206,0.0,0.0,94,0.00,,,0.00,LWC V2.00 B2112,2013-02-06 18:03:00,
2013-02-06 10:08:00,33.4,32.1,29.99,SSW,206,0.0,0.0,95,0.00,,,0.00,LWC V2.00 B2112,2013-02-06 18:08:00,
2013-02-06 10:13:00,33.5,31.7,29.99,South,189,0.0,2.0,93,0.00,,,0.00,LWC V2.00 B2112,2013-02-06 18:13:00,
2013-02-06 10:18:00,33.5,31.2,29.99,South,172,1.0,2.0,91,0.00,,,0.00,LWC V2.00 B2112,2013-02-06 18:18:00,
2013-02-06 10:23:00,33.7,31.4,29.99,SSE,165,0.0,2.0,91,0.00,,,0.00,LWC V2.00 B2112,2013-02-06 18:23:00,
2013-02-06 10:28:00,34.1,31.5,30.00,SSE,165,1.0,2.0,90,0.00,,,0.00,LWC V2.00 B2112,2013-02-06 18:28:00,
2013-02-06 10:33:00,34.3,31.4,30.00,SSE,165,1.0,1.0,89,0.00,,,0.00,LWC V2.00 B2112,2013-02-06 18:33:00,
2013-02-06 10:38:00,34.4,31.2,30.00,SE,133,1.0,2.0,88,0.00,,,0.00,LWC V2.00 B2112,2013-02-06 18:38:00,
2013-02-06 10:43:00,34.4,31.5,30.00,East,97,1.0,4.0,89,0.00,,,0.00,LWC V2.00 B2112,2013-02-06 18:43:00,
2013-02-06 10:48:00,34.7,31.8,30.00,East,97,0.0,0.0,89,0.00,,,0.00,LWC V2.00 B2112,2013-02-06 18:48:00,
2013-02-06 10:53:00,34.9,31.7,30.00,East,97,0.0,0.0,88,0.00,,,0.00,LWC V2.00 B2112,2013-02-06 18:53:00,
2013-02-06 10:58:00,35.2,31.4,30.00,East,97,2.0,2.0,86,0.00,,,0.00,LWC V2.00 B2112,2013-02-06 18:58:00,
2013-02-06 11:03:00,35.3,31.8,30.00,East,97,0.0,1.0,87,0.00,,,0.00,LWC V2.00 B2112,2013-02-06 19:03:00,
2013-02-06 11:08:00,35.5,32.3,30.00,East,97,0.0,0.0,88,0.00,,,0.00,LWC V2.00 B2112,2013-02-06 19:08:00,
2013-02-06 11:13:00,35.8,32.0,30.00,East,97,0.0,1.0,86,0.00,,,0.00,LWC V2.00 B2112,2013-02-06 19:13:00,
2013-02-06 11:18:00,35.9,32.1,30.00,East,97,0.0,2.0,86,0.00,,,0.00,LWC V2.00 B2112,2013-02-06 19:18:00,
2013-02-06 11:23:00,36.2,32.4,30.00,East,97,0.0,1.0,86,0.00,,,0.00,LWC V2.00 B2112,2013-02-06 19:23:00,
2013-02-06 11:28:00,36.5,32.4,29.99,East,97,0.0,0.0,85,0.00,,,0.00,LWC V2.00 B2112,2013-02-06 19:28:00,
2013-02-06 11:33:00,36.6,32.5,29.99,East,97,0.0,2.0,85,0.00,,,0.00,LWC V2.00 B2112,2013-02-06 19:33:00,
2013-02-06 11:38:00,36.5,32.4,29.99,East,96,1.0,4.0,85,0.00,,,0.00,LWC V2.00 B2112,2013-02-06 19:38:00,
2013-02-06 11:43:00,36.5,32.4,29.99,East,97,0.0,2.0,85,0.00,,,0.00,LWC V2.00 B2112,2013-02-06 19:43:00,
2013-02-06 11:48:00,36.6,32.5,29.99,East,97,0.0,0.0,85,0.00,,,0.00,LWC V2.00 B2112,2013-02-06 19:48:00,
2013-02-06 11:53:00,36.9,32.5,29.99,East,97,0.0,0.0,84,0.00,,,0.00,LWC V2.00 B2112,2013-02-06 19:53:00,
2013-02-06 11:58:00,37.2,32.8,29.99,East,97,0.0,0.0,84,0.00,,,0.00,LWC V2.00 B2112,2013-02-06 19:58:00,
2013-02-06 12:03:00,37.5,33.1,29.99,East,97,0.0,0.0,84,0.00,,,0.00,LWC V2.00 B2112,2013-02-06 20:03:00,
2013-02-06 12:08:00,37.9,33.5,29.99,East,97,0.0,0.0,84,0.00,,,0.00,LWC V2.00 B2112,2013-02-06 20:08:00,
2013-02-06 12:13:00,38.5,33.2,29.99,East,97,0.0,0.0,81,0.00,,,0.00,LWC V2.00 B2112,2013-02-06 20:13:00,
2013-02-06 12:18:00,39.1,34.1,29.99,East,97,0.0,0.0,82,0.00,,,0.00,LWC V2.00 B2112,2013-02-06 20:18:00,
2013-02-06 12:23:00,39.5,33.8,29.99,East,97,0.0,0.0,80,0.00,,,0.00,LWC V2.00 B2112,2013-02-06 20:23:00,
2013-02-06 12:28:00,39.9,34.2,29.98,East,97,0.0,0.0,80,0.00,,,0.00,LWC V2.00 B2112,2013-02-06 20:28:00,
2013-02-06 12:33:00,40.5,34.8,29.98,East,97,0.0,0.0,80,0.00,,,0.00,LWC V2.00 B2112,2013-02-06 20:33:00,
2013-02-06 12:38:00,40.2,33.6,29.98,East,97,0.0,0.0,77,0.00,,,0.00,LWC V2.00 B2112,2013-02-06 20:38:00,
2013-02-06 12:43:00,40.3,33.7,29.98,East,97,0.0,0.0,77,0.00,,,0.00,LWC V2.00 B2112,2013-02-06 20:43:00,
2013-02-06 12:48:00,40.5,33.5,29.98,East,97,0.0,0.0,76,0.00,,,0.00,LWC V2.00 B2112,2013-02-06 20:48:00,
2013-02-06 12:53:00,39.8,33.5,29.98,East,97,0.0,0.0,78,0.00,,,0.00,LWC V2.00 B2112,2013-02-06 20:53:00,
2013-02-06 12:58:00,39.3,33.3,29.98,East,97,0.0,0.0,79,0.00,,,0.00,LWC V2.00 B2112,2013-02-06 20:58:00,
2013-02-06 13:03:00,38.8,33.5,29.98,ESE,107,2.0,6.0,81,0.00,,,0.00,LWC V2.00 B2112,2013-02-06 21:03:00,
2013-02-06 13:08:00,38.6,33.3,29.98,SE,130,0.0,2.0,81,0.00,,,0.00,LWC V2.00 B2112,2013-02-06 21:08:00,
2013-02-06 13:13:00,38.5,33.2,29.98,ESE,121,6.0,6.0,81,0.00,,,0.00,LWC V2.00 B2112,2013-02-06 21:13:00,
2013-02-06 13:18:00,38.3,33.3,29.98,SE,145,2.0,6.0,82,0.00,,,0.00,LWC V2.00 B2112,2013-02-06 21:18:00,
2013-02-06 13:23:00,38.5,33.5,29.98,SSE,147,0.0,0.0,82,0.00,,,0.00,LWC V2.00 B2112,2013-02-06 21:23:00,
2013-02-06 13:28:00,38.5,33.5,29.97,SSE,147,0.0,1.0,82,0.00,,,0.00,LWC V2.00 B2112,2013-02-06 21:28:00,
2013-02-06 13:33:00,38.5,33.5,29.97,SSE,147,2.0,2.0,82,0.00,,,0.00,LWC V2.00 B2112,2013-02-06 21:33:00,
2013-02-06 13:38:00,38.3,33.3,29.97,SE,124,4.0,6.0,82,0.00,,,0.00,LWC V2.00 B2112,2013-02-06 21:38:00,
2013-02-06 13:43:00,38.5,33.2,29.97,SE,124,0.0,2.0,81,0.00,,,0.00,LWC V2.00 B2112,2013-02-06 21:43:00,
2013-02-06 13:48:00,38.6,33.6,29.97,SE,124,0.0,0.0,82,0.00,,,0.00,LWC V2.00 B2112,2013-02-06 21:48:00,
2013-02-06 13:53:00,38.9,33.6,29.97,SE,124,0.0,0.0,81,0.00,,,0.00,LWC V2.00 B2112,2013-02-06 21:53:00,
2013-02-06 13:58:00,39.1,33.8,29.97,SE,124,0.0,0.0,81,0.00,,,0.00,LWC V2.00 B2112,2013-02-06 21:58:00,
2013-02-06 14:03:00,39.5,33.8,29.97,SE,124,0.0,0.0,80,0.00,,,0.00,LWC V2.00 B2112,2013-02-06 22:03:00,
2013-02-06 14:08:00,39.8,34.1,29.97,SE,124,0.0,0.0,80,0.00,,,0.00,LWC V2.00 B2112,2013-02-06 22:08:00,
2013-02-06 14:13:00,39.8,33.8,29.97,SE,124,0.0,0.0,79,0.00,,,0.00,LWC V2.00 B2112,2013-02-06 22:13:00,
2013-02-06 14:18:00,39.3,33.7,29.97,SE,124,0.0,0.0,80,0.00,,,0.00,LWC V2.00 B2112,2013-02-06 22:18:00,
2013-02-06 14:23:00,39.1,33.8,29.97,SE,124,2.0,2.0,81,0.00,,,0.00,LWC V2.00 B2112,2013-02-06 22:23:00,
2013-02-06 14:28:00,38.8,33.5,29.97,SE,124,0.0,0.0,81,0.00,,,0.00,LWC V2.00 B2112,2013-02-06 22:28:00,
2013-02-06 14:33:00,38.8,33.5,29.97,SE,124,0.0,0.0,81,0.00,,,0.00,LWC V2.00 B2112,2013-02-06 22:33:00,
2013-02-06 14:38:00,38.8,33.5,29.97,SE,124,0.0,0.0,81,0.00,,,0.00,LWC V2.00 B2112,2013-02-06 22:38:00,
2013-02-06 14:43:00,39.1,33.5,29.97,SE,124,0.0,0.0,80,0.00,,,0.00,LWC V2.00 B2112,2013-02-06 22:43:00,
2013-02-06 14:48:00,39.1,33.5,29.97,SE,124,1.0,2.0,80,0.00,,,0.00,LWC V2.00 B2112,2013-02-06 22:48:00,
2013-02-06 14:53:00,39.2,33.6,29.97,SE,124,0.0,0.0,80,0.00,,,0.00,LWC V2.00 B2112,2013-02-06 22:53:00,
2013-02-06 14:58:00,39.3,33.7,29.97,SE,124,0.0,0.0,80,0.00,,,0.00,LWC V2.00 B2112,2013-02-06 22:58:00,
2013-02-06 15:03:00,39.3,33.7,29.97,SE,124,0.0,0.0,80,0.00,,,0.00,LWC V2.00 B2112,2013-02-06 23:03:00,
2013-02-06 15:08:00,39.2,33.6,29.97,SE,124,1.0,2.0,80,0.00,,,0.00,LWC V2.00 B2112,2013-02-06 23:08:00,
2013-02-06 15:13:00,39.2,33.6,29.97,SE,124,0.0,1.0,80,0.00,,,0.00,LWC V2.00 B2112,2013-02-06 23:13:00,
2013-02-06 15:18:00,39.2,33.6,29.97,SE,124,0.0,0.0,80,0.00,,,0.00,LWC V2.00 B2112,2013-02-06 23:18:00,
2013-02-06 15:23:00,39.5,33.5,29.97,SE,124,0.0,0.0,79,0.00,,,0.00,LWC V2.00 B2112,2013-02-06 23:23:00,
2013-02-06 15:28:00,39.8,33.5,29.96,SE,124,0.0,0.0,78,0.00,,,0.00,LWC V2.00 B2112,2013-02-06 23:28:00,
2013-02-06 15:33:00,40.1,33.8,29.96,SE,124,0.0,0.0,78,0.00,,,0.00,LWC V2.00 B2112,2013-02-06 23:33:00,
2013-02-06 15:38:00,40.3,33.7,29.96,SE,124,0.0,0.0,77,0.00,,,0.00,LWC V2.00 B2112,2013-02-06 23:38:00,
2013-02-06 15:43:00,40.3,33.7,29.96,SE,124,0.0,0.0,77,0.00,,,0.00,LWC V2.00 B2112,2013-02-06 23:43:00,
2013-02-06 15:48:00,40.1,34.4,29.96,SE,124,0.0,0.0,80,0.00,,,0.00,LWC V2.00 B2112,2013-02-06 23:48:00,
2013-02-06 15:53:00,39.8,34.1,29.96,SE,124,0.0,0.0,80,0.00,,,0.00,LWC V2.00 B2112,2013-02-06 23:53:00,
2013-02-06 15:58:00,39.3,34.0,29.96,SE,124,0.0,0.0,81,0.00,,,0.00,LWC V2.00 B2112,2013-02-06 23:58:00,
2013-02-06 16:03:00,38.6,33.9,29.96,SE,124,0.0,2.0,83,0.00,,,0.00,LWC V2.00 B2112,2013-02-07 00:03:00,
2013-02-06 16:08:00,38.3,33.3,29.96,SE,124,0.0,0.0,82,0.00,,,0.00,LWC V2.00 B2112,2013-02-07 00:08:00,
2013-02-06 16:13:00,37.9,33.5,29.95,SE,124,0.0,0.0,84,0.00,,,0.00,LWC V2.00 B2112,2013-02-07 00:13:00,
2013-02-06 16:18:00,37.8,33.1,29.95,SE,124,0.0,0.0,83,0.00,,,0.00,LWC V2.00 B2112,2013-02-07 00:18:00,
2013-02-06 16:23:00,37.8,33.1,29.95,SE,124,0.0,0.0,83,0.00,,,0.00,LWC V2.00 B2112,2013-02-07 00:23:00,
2013-02-06 16:28:00,37.5,33.1,29.95,SE,124,0.0,0.0,84,0.00,,,0.00,LWC V2.00 B2112,2013-02-07 00:28:00,
2013-02-06 16:33:00,37.6,33.5,29.95,SE,124,0.0,0.0,85,0.00,,,0.00,LWC V2.00 B2112,2013-02-07 00:33:00,
2013-02-06 16:38:00,37.8,33.7,29.95,SE,124,0.0,2.0,85,0.00,,,0.00,LWC V2.00 B2112,2013-02-07 00:38:00,
2013-02-06 16:43:00,37.6,33.2,29.95,SE,124,0.0,0.0,84,0.00,,,0.00,LWC V2.00 B2112,2013-02-07 00:43:00,
2013-02-06 16:48:00,37.5,33.7,29.95,SE,124,0.0,2.0,86,0.00,,,0.00,LWC V2.00 B2112,2013-02-07 00:48:00,
2013-02-06 16:53:00,37.3,33.2,29.95,SE,124,0.0,0.0,85,0.00,,,0.00,LWC V2.00 B2112,2013-02-07 00:53:00,
2013-02-06 16:58:00,36.9,32.8,29.95,SE,124,0.0,0.0,85,0.00,,,0.00,LWC V2.00 B2112,2013-02-07 00:58:00,
2013-02-06 17:03:00,36.6,33.1,29.95,SE,124,0.0,0.0,87,0.00,,,0.00,LWC V2.00 B2112,2013-02-07 01:03:00,
2013-02-06 17:08:00,36.3,32.5,29.95,SE,124,0.0,0.0,86,0.00,,,0.00,LWC V2.00 B2112,2013-02-07 01:08:00,
2013-02-06 17:13:00,36.3,33.1,29.95,SE,124,0.0,0.0,88,0.00,,,0.00,LWC V2.00 B2112,2013-02-07 01:13:00,
2013-02-06 17:18:00,36.2,32.7,29.95,SE,124,0.0,0.0,87,0.00,,,0.00,LWC V2.00 B2112,2013-02-07 01:18:00,
2013-02-06 17:23:00,35.9,32.4,29.95,SE,124,0.0,0.0,87,0.00,,,0.00,LWC V2.00 B2112,2013-02-07 01:23:00,
2013-02-06 17:28:00,36.2,33.0,29.96,SE,124,0.0,4.0,88,0.00,,,0.00,LWC V2.00 B2112,2013-02-07 01:28:00,
2013-02-06 17:33:00,36.5,33.0,29.96,SE,124,1.0,2.0,87,0.00,,,0.00,LWC V2.00 B2112,2013-02-07 01:33:00,
2013-02-06 17:38:00,36.5,33.0,29.96,SE,124,0.0,2.0,87,0.00,,,0.00,LWC V2.00 B2112,2013-02-07 01:38:00,
2013-02-06 17:43:00,36.3,32.8,29.96,SE,124,0.0,0.0,87,0.00,,,0.00,LWC V2.00 B2112,2013-02-07 01:43:00,
2013-02-06 17:48:00,36.2,32.7,29.96,SE,124,0.0,0.0,87,0.00,,,0.00,LWC V2.00 B2112,2013-02-07 01:48:00,
2013-02-06 17:53:00,35.9,32.7,29.96,SE,124,0.0,0.0,88,0.00,,,0.00,LWC V2.00 B2112,2013-02-07 01:53:00,
2013-02-06 17:58:00,35.6,32.4,29.96,SE,124,0.0,0.0,88,0.00,,,0.00,LWC V2.00 B2112,2013-02-07 01:58:00,
2013-02-06 18:03:00,35.6,32.7,29.96,SE,124,0.0,0.0,89,0.00,,,0.00,LWC V2.00 B2112,2013-02-07 02:03:00,
2013-02-06 18:08:00,35.5,32.6,29.96,SE,124,0.0,0.0,89,0.00,,,0.00,LWC V2.00 B2112,2013-02-07 02:08:00,
2013-02-06 18:13:00,35.2,32.3,29.96,SE,124,0.0,0.0,89,0.00,,,0.00,LWC V2.00 B2112,2013-02-07 02:13:00,
2013-02-06 18:18:00,35.2,32.3,29.96,SE,124,0.0,0.0,89,0.00,,,0.00,LWC V2.00 B2112,2013-02-07 02:18:00,
2013-02-06 18:23:00,35.0,32.1,29.96,SE,124,0.0,0.0,89,0.00,,,0.00,LWC V2.00 B2112,2013-02-07 02:23:00,
2013-02-06 18:28:00,35.0,32.1,29.96,SE,124,0.0,0.0,89,0.00,,,0.00,LWC V2.00 B2112,2013-02-07 02:28:00,
2013-02-06 18:33:00,34.9,32.0,29.96,SE,124,0.0,0.0,89,0.00,,,0.00,LWC V2.00 B2112,2013-02-07 02:33:00,
2013-02-06 18:38:00,34.7,32.1,29.96,SE,124,0.0,0.0,90,0.00,,,0.00,LWC V2.00 B2112,2013-02-07 02:38:00,
2013-02-06 18:43:00,34.7,32.1,29.96,SE,124,0.0,0.0,90,0.00,,,0.00,LWC V2.00 B2112,2013-02-07 02:43:00,
2013-02-06 18:48:00,34.6,32.2,29.96,SE,124,0.0,0.0,91,0.00,,,0.00,LWC V2.00 B2112,2013-02-07 02:48:00,
2013-02-06 18:53:00,34.6,32.5,29.96,WSW,244,2.0,4.0,92,0.00,,,0.00,LWC V2.00 B2112,2013-02-07 02:53:00,
2013-02-06 18:58:00,34.7,32.6,29.95,West,263,2.0,6.0,92,0.00,,,0.00,LWC V2.00 B2112,2013-02-07 02:58:00,
2013-02-06 19:03:00,34.6,32.5,29.95,West,263,4.0,4.0,92,0.00,,,0.00,LWC V2.00 B2112,2013-02-07 03:03:00,
2013-02-06 19:08:00,34.9,32.8,29.95,West,263,2.0,6.0,92,0.00,,,0.00,LWC V2.00 B2112,2013-02-07 03:08:00,
2013-02-06 19:14:00,35.2,32.8,29.95,South,189,1.0,2.0,91,0.00,,,0.00,LWC V2.00 B2112,2013-02-07 03:14:00,
2013-02-06 19:19:00,35.3,32.7,29.95,SSW,192,0.0,4.0,90,0.00,,,0.00,LWC V2.00 B2112,2013-02-07 03:19:00,
2013-02-06 19:24:00,35.9,32.7,29.95,WSW,254,2.0,6.0,88,0.00,,,0.00,LWC V2.00 B2112,2013-02-07 03:24:00,
2013-02-06 19:29:00,35.9,33.0,29.94,WSW,254,2.0,4.0,89,0.00,,,0.00,LWC V2.00 B2112,2013-02-07 03:29:00,
2013-02-06 19:34:00,35.6,32.7,29.94,South,176,0.0,1.0,89,0.00,,,0.00,LWC V2.00 B2112,2013-02-07 03:34:00,
2013-02-06 19:39:00,35.5,32.6,29.94,SE,145,0.0,6.0,89,0.00,,,0.00,LWC V2.00 B2112,2013-02-07 03:39:00,
2013-02-06 19:44:00,35.8,32.6,29.94,East,82,4.0,6.0,88,0.00,,,0.00,LWC V2.00 B2112,2013-02-07 03:44:00,
2013-02-06 19:49:00,35.9,33.0,29.94,East,85,0.0,4.0,89,0.00,,,0.00,LWC V2.00 B2112,2013-02-07 03:49:00,
2013-02-06 19:54:00,36.0,33.1,29.94,East,85,0.0,0.0,89,0.00,,,0.00,LWC V2.00 B2112,2013-02-07 03:54:00,
2013-02-06 19:59:00,35.9,33.0,29.94,East,85,0.0,0.0,89,0.00,,,0.00,LWC V2.00 B2112,2013-02-07 03:59:00,
2013-02-06 20:04:00,35.6,33.0,29.94,East,85,0.0,0.0,90,0.00,,,0.00,LWC V2.00 B2112,2013-02-07 04:04:00,
2013-02-06 20:09:00,35.6,33.0,29.94,East,85,0.0,0.0,90,0.00,,,0.00,LWC V2.00 B2112,2013-02-07 04:09:00,
2013-02-06 20:14:00,35.3,32.7,29.94,East,85,2.0,2.0,90,0.00,,,0.00,LWC V2.00 B2112,2013-02-07 04:14:00,
2013-02-06 20:19:00,35.2,32.8,29.94,East,85,0.0,0.0,91,0.00,,,0.01,LWC V2.00 B2112,2013-02-07 04:19:00,
2013-02-06 20:24:00,35.0,32.9,29.94,East,85,0.0,0.0,92,0.00,,,0.01,LWC V2.00 B2112,2013-02-07 04:24:00,
2013-02-06 20:29:00,35.0,32.9,29.95,East,85,0.0,0.0,92,0.00,,,0.01,LWC V2.00 B2112,2013-02-07 04:29:00,
2013-02-06 20:34:00,34.9,32.8,29.95,East,85,0.0,0.0,92,0.00,,,0.01,LWC V2.00 B2112,2013-02-07 04:34:00,
2013-02-06 20:39:00,34.7,32.9,29.95,East,85,0.0,0.0,93,0.00,,,0.01,LWC V2.00 B2112,2013-02-07 04:39:00,
2013-02-06 20:44:00,34.7,32.9,29.94,East,85,0.0,1.0,93,0.00,,,0.01,LWC V2.00 B2112,2013-02-07 04:44:00,
2013-02-06 20:49:00,34.6,32.8,29.94,East,85,1.0,2.0,93,0.00,,,0.01,LWC V2.00 B2112,2013-02-07 04:49:00,
2013-02-06 20:54:00,34.7,33.2,29.94,South,182,2.0,2.0,94,0.00,,,0.01,LWC V2.00 B2112,2013-02-07 04:54:00,
2013-02-06 20:59:00,34.9,33.6,29.93,South,182,0.0,0.0,95,0.00,,,0.01,LWC V2.00 B2112,2013-02-07 04:59:00,
2013-02-06 21:00:00,35.0,33.7,29.93,South,182,0.0,0.0,95,0.00,,,0.01,LWC V2.00 B2112,2013-02-07 05:00:00,
2013-02-06 21:05:00,35.0,33.7,29.93,South,182,0.0,0.0,95,0.00,,,0.01,LWC V2.00 B2112,2013-02-07 05:05:00,
2013-02-06 21:10:00,34.9,33.6,29.93,South,182,0.0,0.0,95,0.00,,,0.01,LWC V2.00 B2112,2013-02-07 05:10:00,
2013-02-06 21:15:00,34.7,33.2,29.93,South,182,0.0,0.0,94,0.00,,,0.01,LWC V2.00 B2112,2013-02-07 05:15:00,
2013-02-06 21:20:00,34.7,33.2,29.93,South,182,0.0,0.0,94,0.00,,,0.01,LWC V2.00 B2112,2013-02-07 05:20:00,
2013-02-06 21:25:00,34.6,33.3,29.93,South,182,0.0,0.0,95,0.00,,,0.01,LWC V2.00 B2112,2013-02-07 05:25:00,
2013-02-06 21:30:00,34.6,33.3,29.93,South,182,0.0,0.0,95,0.00,,,0.01,LWC V2.00 B2112,2013-02-07 05:30:00,
2013-02-06 21:35:00,34.4,33.1,29.93,South,182,0.0,0.0,95,0.00,,,0.01,LWC V2.00 B2112,2013-02-07 05:35:00,
2013-02-06 21:40:00,34.4,33.1,29.93,South,182,0.0,0.0,95,0.00,,,0.01,LWC V2.00 B2112,2013-02-07 05:40:00,
2013-02-06 21:45:00,34.4,33.1,29.92,South,182,0.0,0.0,95,0.00,,,0.01,LWC V2.00 B2112,2013-02-07 05:45:00,
2013-02-06 21:50:00,34.4,33.1,29.92,South,182,0.0,0.0,95,0.00,,,0.01,LWC V2.00 B2112,2013-02-07 05:50:00,
2013-02-06 21:55:00,34.4,33.1,29.92,South,182,0.0,0.0,95,0.00,,,0.01,LWC V2.00 B2112,2013-02-07 05:55:00,
2013-02-06 22:00:00,34.4,33.1,29.92,South,182,0.0,0.0,95,0.00,,,0.01,LWC V2.00 B2112,2013-02-07 06:00:00,
2013-02-06 22:05:00,34.3,33.3,29.92,South,182,0.0,0.0,96,0.00,,,0.01,LWC V2.00 B2112,2013-02-07 06:05:00,
2013-02-06 22:10:00,34.3,33.3,29.92,South,182,0.0,0.0,96,0.00,,,0.01,LWC V2.00 B2112,2013-02-07 06:10:00,
2013-02-06 22:15:00,34.3,33.3,29.92,South,182,0.0,0.0,96,0.00,,,0.01,LWC V2.00 B2112,2013-02-07 06:15:00,
2013-02-06 22:20:00,34.1,33.1,29.92,South,182,0.0,0.0,96,0.00,,,0.01,LWC V2.00 B2112,2013-02-07 06:20:00,
2013-02-06 22:25:00,34.3,33.3,29.92,South,184,0.0,2.0,96,0.00,,,0.01,LWC V2.00 B2112,2013-02-07 06:25:00,
2013-02-06 22:30:00,34.4,33.4,29.92,South,184,0.0,0.0,96,0.00,,,0.01,LWC V2.00 B2112,2013-02-07 06:30:00,
2013-02-06 22:35:00,34.3,33.3,29.92,South,184,0.0,2.0,96,0.00,,,0.01,LWC V2.00 B2112,2013-02-07 06:35:00,
2013-02-06 22:40:00,34.4,33.4,29.92,South,184,0.0,1.0,96,0.00,,,0.01,LWC V2.00 B2112,2013-02-07 06:40:00,
2013-02-06 22:45:00,34.4,33.6,29.92,South,184,0.0,0.0,97,0.00,,,0.01,LWC V2.00 B2112,2013-02-07 06:45:00,
2013-02-06 22:50:00,34.4,33.6,29.92,South,184,0.0,0.0,97,0.00,,,0.01,LWC V2.00 B2112,2013-02-07 06:50:00,
2013-02-06 22:55:00,34.4,33.6,29.92,South,184,0.0,0.0,97,0.00,,,0.01,LWC V2.00 B2112,2013-02-07 06:55:00,
2013-02-06 23:00:00,34.4,33.6,29.91,South,184,0.0,0.0,97,0.00,,,0.01,LWC V2.00 B2112,2013-02-07 07:00:00,
2013-02-06 23:05:00,34.4,33.6,29.91,South,184,0.0,1.0,97,0.00,,,0.01,LWC V2.00 B2112,2013-02-07 07:05:00,
2013-02-06 23:10:00,34.3,33.5,29.91,South,184,0.0,0.0,97,0.00,,,0.01,LWC V2.00 B2112,2013-02-07 07:10:00,
2013-02-06 23:15:00,34.3,33.5,29.91,South,184,0.0,0.0,97,0.00,,,0.01,LWC V2.00 B2112,2013-02-07 07:15:00,
2013-02-06 23:20:00,34.4,33.6,29.91,South,184,0.0,0.0,97,0.00,,,0.01,LWC V2.00 B2112,2013-02-07 07:20:00,
2013-02-06 23:25:00,34.4,33.6,29.91,South,184,0.0,0.0,97,0.00,,,0.01,LWC V2.00 B2112,2013-02-07 07:25:00,
2013-02-06 23:30:00,34.6,33.8,29.90,South,184,0.0,0.0,97,0.00,,,0.01,LWC V2.00 B2112,2013-02-07 07:30:00,
2013-02-06 23:35:00,34.6,33.6,29.90,SSW,212,0.0,2.0,96,0.00,,,0.01,LWC V2.00 B2112,2013-02-07 07:35:00,
2013-02-06 23:40:00,34.6,33.8,29.90,SSW,212,0.0,0.0,97,0.00,,,0.01,LWC V2.00 B2112,2013-02-07 07:40:00,
2013-02-06 23:45:00,34.4,33.6,29.90,SSW,212,0.0,0.0,97,0.00,,,0.00,LWC V2.00 B2112,2013-02-07 07:45:00,
2013-02-06 23:50:00,34.7,33.9,29.90,SSW,212,0.0,0.0,97,0.00,,,0.00,LWC V2.00 B2112,2013-02-07 07:50:00,
2013-02-06 23:55:00,34.6,33.8,29.90,SSW,212,0.0,0.0,97,0.00,,,0.00,LWC V2.00 B2112,2013-02-07 07:55:00,